createdAt,value
2023-04-17T00:01:37.900Z,14.82
2023-04-17T00:04:05.071Z,15.18
2023-04-17T00:06:33.802Z,14.77
2023-04-17T00:09:00.593Z,16.00
2023-04-17T00:11:27.355Z,16.02
2023-04-17T00:13:54.034Z,15.65
2023-04-17T00:16:20.693Z,15.07
2023-04-17T00:18:47.351Z,15.95
2023-04-17T00:21:14.169Z,16.15
2023-04-17T00:23:40.880Z,15.57
2023-04-17T00:26:07.514Z,16.23
2023-04-17T00:28:34.197Z,16.67
2023-04-17T00:31:00.870Z,15.38
2023-04-17T00:33:27.521Z,15.40
2023-04-17T00:35:54.128Z,16.77
2023-04-17T00:38:21.781Z,16.50
2023-04-17T00:40:48.839Z,15.95
2023-04-17T00:43:15.481Z,16.83
2023-04-17T00:45:42.331Z,15.73
2023-04-17T00:48:10.801Z,17.13
2023-04-17T00:50:37.949Z,15.20
2023-04-17T00:53:04.894Z,17.70
2023-04-17T00:55:32.498Z,16.50
2023-04-17T00:57:59.729Z,16.88
2023-04-17T01:00:26.645Z,17.42
2023-04-17T01:02:53.569Z,16.58
2023-04-17T01:05:20.432Z,16.90
2023-04-17T01:07:47.101Z,16.40
2023-04-17T01:10:13.838Z,15.73
2023-04-17T01:12:41.290Z,15.75
2023-04-17T01:15:08.192Z,16.95
2023-04-17T01:17:34.943Z,17.00
2023-04-17T01:20:01.855Z,17.20
2023-04-17T01:22:28.522Z,16.48
2023-04-17T01:24:55.256Z,16.40
2023-04-17T01:27:22.732Z,17.95
2023-04-17T01:29:49.487Z,16.58
2023-04-17T01:32:17.026Z,17.85
2023-04-17T01:34:43.792Z,15.80
2023-04-17T01:37:10.800Z,16.50
2023-04-17T01:39:37.647Z,17.95
2023-04-17T01:42:04.905Z,17.23
2023-04-17T01:44:31.515Z,18.08
2023-04-17T01:46:58.134Z,17.85
2023-04-17T01:49:24.794Z,17.30
2023-04-17T01:51:51.398Z,19.40
2023-04-17T01:54:18.061Z,18.20
2023-04-17T01:56:44.692Z,17.38
2023-04-17T01:59:11.503Z,16.73
2023-04-17T02:01:38.453Z,18.13
2023-04-17T02:04:05.336Z,17.90
2023-04-17T02:06:32.495Z,17.50
2023-04-17T02:08:59.922Z,16.77
2023-04-17T02:11:26.563Z,18.40
2023-04-17T02:13:53.466Z,16.08
2023-04-17T02:16:21.755Z,18.08
2023-04-17T02:18:49.466Z,17.58
2023-04-17T02:21:16.108Z,17.52
2023-04-17T02:23:43.199Z,19.08
2023-04-17T02:26:10.058Z,18.42
2023-04-17T02:28:36.754Z,16.83
2023-04-17T02:31:07.338Z,16.98
2023-04-17T02:33:36.401Z,17.60
2023-04-17T02:36:06.822Z,16.90
2023-04-17T02:38:33.688Z,18.10
2023-04-17T02:41:00.361Z,18.75
2023-04-17T02:43:27.011Z,17.45
2023-04-17T02:45:53.669Z,17.48
2023-04-17T02:48:20.308Z,18.75
2023-04-17T02:50:46.984Z,17.52
2023-04-17T02:53:13.673Z,18.27
2023-04-17T02:55:40.283Z,18.10
2023-04-17T02:58:06.879Z,17.23
2023-04-17T03:00:33.641Z,17.77
2023-04-17T03:03:00.999Z,16.42
2023-04-17T03:05:30.373Z,17.25
2023-04-17T03:07:59.116Z,16.58
2023-04-17T03:10:25.783Z,18.42
2023-04-17T03:12:52.767Z,17.10
2023-04-17T03:15:19.461Z,17.92
2023-04-17T03:17:46.185Z,17.70
2023-04-17T03:20:12.956Z,17.08
2023-04-17T03:22:39.574Z,17.02
2023-04-17T03:25:06.687Z,17.77
2023-04-17T03:27:33.343Z,17.25
2023-04-17T03:30:00.000Z,16.50
2023-04-17T03:32:26.612Z,17.30
2023-04-17T03:34:53.237Z,17.52
2023-04-17T03:37:19.834Z,17.10
2023-04-17T03:39:46.495Z,16.75
2023-04-17T03:42:14.625Z,17.85
2023-04-17T03:44:41.413Z,16.15
2023-04-17T03:47:08.075Z,18.02
2023-04-17T03:49:34.728Z,18.25
2023-04-17T03:52:03.674Z,17.88
2023-04-17T03:54:35.151Z,17.35
2023-04-17T03:57:03.402Z,17.83
2023-04-17T03:59:33.089Z,17.52
2023-04-17T04:01:59.994Z,17.85
2023-04-17T04:04:26.991Z,18.10
2023-04-17T04:06:58.022Z,16.55
2023-04-17T04:09:27.538Z,17.42
2023-04-17T04:11:54.228Z,17.00
2023-04-17T04:14:20.947Z,18.23
2023-04-17T04:16:47.577Z,16.55
2023-04-17T04:19:14.371Z,16.20
2023-04-17T04:21:42.261Z,15.95
2023-04-17T04:24:10.040Z,17.60
2023-04-17T04:26:37.829Z,17.25
2023-04-17T04:29:04.539Z,17.20
2023-04-17T04:31:31.530Z,18.67
2023-04-17T04:33:59.313Z,18.15
2023-04-17T04:36:30.032Z,17.58
2023-04-17T04:39:00.804Z,16.63
2023-04-17T04:41:27.411Z,15.88
2023-04-17T04:43:57.087Z,15.23
2023-04-17T04:46:23.764Z,16.92
2023-04-17T04:48:50.382Z,15.60
2023-04-17T04:51:19.071Z,16.30
2023-04-17T04:53:46.053Z,16.33
2023-04-17T04:56:12.845Z,15.73
2023-04-17T04:58:39.475Z,16.95
2023-04-17T05:01:06.876Z,15.98
2023-04-17T05:03:33.943Z,16.35
2023-04-17T05:06:00.772Z,18.80
2023-04-17T05:08:27.380Z,15.80
2023-04-17T05:10:54.028Z,17.55
2023-04-17T05:13:20.924Z,16.95
2023-04-17T05:15:47.547Z,18.27
2023-04-17T05:18:14.164Z,18.48
2023-04-17T05:20:40.897Z,17.30
2023-04-17T05:23:07.531Z,18.02
2023-04-17T05:25:34.189Z,17.55
2023-04-17T05:28:00.894Z,16.17
2023-04-17T05:30:27.534Z,16.52
2023-04-17T05:32:54.394Z,16.08
2023-04-17T05:35:21.127Z,17.50
2023-04-17T05:37:47.729Z,19.08
2023-04-17T05:40:14.358Z,17.55
2023-04-17T05:42:41.070Z,17.50
2023-04-17T05:45:08.194Z,16.77
2023-04-17T05:47:35.030Z,16.05
2023-04-17T05:50:01.665Z,16.23
2023-04-17T05:52:28.255Z,16.45
2023-04-17T05:54:54.864Z,18.38
2023-04-17T05:57:21.477Z,16.67
2023-04-17T05:59:49.170Z,17.23
2023-04-17T06:02:16.587Z,18.02
2023-04-17T06:04:46.983Z,18.90
2023-04-17T06:07:13.890Z,18.52
2023-04-17T06:09:41.171Z,18.30
2023-04-17T06:12:14.688Z,19.65
2023-04-17T06:14:41.626Z,19.00
2023-04-17T06:17:08.383Z,18.30
2023-04-17T06:19:35.040Z,17.10
2023-04-17T06:22:01.681Z,18.85
2023-04-17T06:24:28.288Z,19.60
2023-04-17T06:26:54.894Z,18.98
2023-04-17T06:29:21.487Z,18.35
2023-04-17T06:31:48.138Z,20.77
2023-04-17T06:34:14.758Z,20.40
2023-04-17T06:36:41.475Z,17.75
2023-04-17T06:39:08.149Z,18.10
2023-04-17T06:41:34.850Z,17.63
2023-04-17T06:44:01.654Z,17.23
2023-04-17T06:46:28.300Z,15.60
2023-04-17T06:48:57.900Z,14.90
2023-04-17T06:51:25.408Z,14.65
2023-04-17T06:53:52.425Z,14.82
2023-04-17T06:56:19.482Z,15.35
2023-04-17T06:58:46.252Z,14.75
2023-04-17T07:01:13.756Z,15.20
2023-04-17T07:03:41.682Z,16.00
2023-04-17T07:06:09.231Z,13.95
2023-04-17T07:08:35.850Z,16.20
2023-04-17T07:11:02.669Z,16.25
2023-04-17T07:13:31.418Z,15.80
2023-04-17T07:15:59.241Z,14.27
2023-04-17T07:18:26.837Z,13.82
2023-04-17T07:20:53.492Z,15.02
2023-04-17T07:23:20.121Z,15.20
2023-04-17T07:25:46.819Z,14.90
2023-04-17T07:28:14.273Z,15.18
2023-04-17T07:30:43.716Z,15.68
2023-04-17T07:33:10.578Z,15.65
2023-04-17T07:35:37.387Z,14.00
2023-04-17T07:38:04.356Z,14.15
2023-04-17T07:40:31.721Z,14.38
2023-04-17T07:42:58.305Z,15.15
2023-04-17T07:45:24.991Z,14.57
2023-04-17T07:47:52.624Z,13.80
2023-04-17T07:50:19.424Z,14.13
2023-04-17T07:52:46.465Z,13.60
2023-04-17T07:55:13.267Z,14.45
2023-04-17T07:57:43.261Z,14.30
2023-04-17T08:00:13.381Z,14.20
2023-04-17T08:02:41.521Z,13.85
2023-04-17T08:05:09.415Z,14.15
2023-04-17T08:07:36.680Z,14.00
2023-04-17T08:10:04.356Z,15.38
2023-04-17T08:12:31.014Z,14.20
2023-04-17T08:14:57.709Z,14.02
2023-04-17T08:17:25.988Z,14.95
2023-04-17T08:19:57.653Z,13.82
2023-04-17T08:22:26.060Z,14.35
2023-04-17T08:24:57.782Z,14.75
2023-04-17T08:27:25.557Z,14.13
2023-04-17T08:29:56.521Z,14.30
2023-04-17T08:32:23.273Z,14.40
2023-04-17T08:34:49.893Z,14.85
2023-04-17T08:37:16.518Z,14.52
2023-04-17T08:39:43.246Z,14.13
2023-04-17T08:42:18.436Z,14.65
2023-04-17T08:44:45.926Z,14.10
2023-04-17T08:47:13.294Z,14.02
2023-04-17T08:49:43.394Z,14.40
2023-04-17T08:52:10.861Z,14.68
2023-04-17T08:54:38.766Z,14.52
2023-04-17T08:57:06.102Z,15.07
2023-04-17T08:59:32.958Z,12.57
2023-04-17T09:02:07.396Z,14.18
2023-04-17T09:04:39.288Z,13.73
2023-04-17T09:07:07.635Z,12.98
2023-04-17T09:09:55.590Z,13.02
2023-04-17T09:12:24.601Z,13.18
2023-04-17T09:14:51.963Z,14.38
2023-04-17T09:17:20.326Z,13.43
2023-04-17T09:20:07.798Z,15.52
2023-04-17T09:22:36.718Z,14.02
2023-04-17T09:25:04.539Z,13.55
2023-04-17T09:27:31.844Z,13.68
2023-04-17T09:30:04.089Z,14.20
2023-04-17T09:32:32.540Z,13.95
2023-04-17T09:35:01.460Z,14.90
2023-04-17T09:37:52.307Z,15.13
2023-04-17T09:40:20.878Z,12.80
2023-04-17T09:42:57.357Z,14.18
2023-04-17T09:45:25.454Z,14.20
2023-04-17T09:47:55.815Z,14.88
2023-04-17T09:50:24.623Z,14.50
2023-04-17T09:52:52.592Z,15.10
2023-04-17T09:55:23.769Z,16.10
2023-04-17T09:57:56.739Z,15.73
2023-04-17T10:00:27.442Z,13.57
2023-04-17T10:02:56.159Z,14.20
2023-04-17T10:05:25.846Z,13.85
2023-04-17T10:07:52.567Z,13.38
2023-04-17T10:10:26.358Z,12.80
2023-04-17T10:12:59.004Z,12.95
2023-04-17T10:15:27.035Z,11.85
2023-04-17T10:17:56.327Z,12.85
2023-04-17T10:20:28.306Z,12.30
2023-04-17T10:22:56.022Z,11.55
2023-04-17T10:25:26.218Z,11.68
2023-04-17T10:28:02.834Z,11.93
2023-04-17T10:30:53.809Z,12.85
2023-04-17T10:33:22.368Z,12.20
2023-04-17T10:35:49.315Z,12.07
2023-04-17T10:38:16.303Z,11.82
2023-04-17T10:40:44.129Z,10.65
2023-04-17T10:43:11.925Z,9.82
2023-04-17T10:45:56.957Z,9.77
2023-04-17T10:48:38.071Z,10.32
2023-04-17T10:51:23.108Z,9.80
2023-04-17T10:53:53.856Z,10.23
2023-04-17T10:56:24.675Z,9.05
2023-04-17T10:58:59.582Z,9.02
2023-04-17T11:01:37.068Z,8.27
2023-04-17T11:04:04.945Z,8.60
2023-04-17T11:06:33.035Z,7.25
2023-04-17T11:09:00.802Z,7.60
2023-04-17T11:11:40.423Z,6.95
2023-04-17T11:14:14.999Z,6.72
2023-04-17T11:16:44.310Z,5.90
2023-04-17T11:19:13.370Z,6.47
2023-04-17T11:21:42.812Z,6.00
2023-04-17T11:24:09.658Z,5.55
2023-04-17T11:26:46.699Z,5.82
2023-04-17T11:29:18.386Z,5.75
2023-04-17T11:31:45.553Z,5.50
2023-04-17T11:34:13.478Z,6.07
2023-04-17T11:36:40.114Z,6.40
2023-04-17T11:39:08.273Z,6.38
2023-04-17T11:41:39.034Z,7.15
2023-04-17T11:44:15.491Z,6.95
2023-04-17T11:46:42.334Z,7.25
2023-04-17T11:49:11.785Z,7.15
2023-04-17T11:51:38.690Z,6.55
2023-04-17T11:54:05.354Z,5.80
2023-04-17T11:56:32.021Z,6.22
2023-04-17T11:59:00.081Z,6.38
2023-04-17T12:01:28.608Z,5.95
2023-04-17T12:03:57.715Z,5.85
2023-04-17T12:06:35.245Z,5.93
2023-04-17T12:09:02.864Z,5.95
2023-04-17T12:11:32.437Z,5.55
2023-04-17T12:14:00.465Z,5.90
2023-04-17T12:16:28.973Z,5.55
2023-04-17T12:18:56.247Z,6.13
2023-04-17T12:21:26.204Z,5.45
2023-04-17T12:23:53.046Z,5.80
2023-04-17T12:26:19.751Z,5.35
2023-04-17T12:28:46.497Z,5.10
2023-04-17T12:31:13.351Z,4.88
2023-04-17T12:33:40.015Z,5.05
2023-04-17T12:36:07.100Z,5.03
2023-04-17T12:38:33.965Z,4.88
2023-04-17T12:41:00.841Z,5.40
2023-04-17T12:43:27.525Z,4.72
2023-04-17T12:45:54.190Z,4.40
2023-04-17T12:48:20.906Z,4.55
2023-04-17T12:50:47.583Z,5.15
2023-04-17T12:53:15.041Z,5.03
2023-04-17T12:55:44.067Z,5.40
2023-04-17T12:58:12.852Z,5.05
2023-04-17T13:00:43.347Z,5.50
2023-04-17T13:03:11.554Z,5.45
2023-04-17T13:05:38.655Z,5.20
2023-04-17T13:08:05.721Z,5.70
2023-04-17T13:10:34.207Z,6.13
2023-04-17T13:13:02.235Z,5.47
2023-04-17T13:15:28.925Z,5.50
2023-04-17T13:17:56.141Z,5.35
2023-04-17T13:20:22.930Z,5.53
2023-04-17T13:22:49.642Z,5.40
2023-04-17T13:25:16.301Z,5.72
2023-04-17T13:27:43.089Z,5.40
2023-04-17T13:30:10.124Z,5.50
2023-04-17T13:32:36.767Z,5.47
2023-04-17T13:35:05.023Z,5.75
2023-04-17T13:37:32.049Z,5.68
2023-04-17T13:39:59.673Z,5.18
2023-04-17T13:42:26.717Z,5.55
2023-04-17T13:44:53.314Z,4.65
2023-04-17T13:47:20.037Z,5.80
2023-04-17T13:49:46.745Z,5.13
2023-04-17T13:52:13.540Z,5.28
2023-04-17T13:54:41.289Z,5.85
2023-04-17T13:57:09.437Z,5.68
2023-04-17T13:59:36.092Z,6.10
2023-04-17T14:02:04.000Z,5.75
2023-04-17T14:04:33.945Z,5.80
2023-04-17T14:07:00.964Z,5.15
2023-04-17T14:09:27.714Z,6.00
2023-04-17T14:11:54.354Z,5.70
2023-04-17T14:14:21.238Z,5.93
2023-04-17T14:16:49.668Z,5.40
2023-04-17T14:19:16.906Z,6.07
2023-04-17T14:21:43.826Z,5.45
2023-04-17T14:24:10.528Z,5.53
2023-04-17T14:26:38.198Z,5.25
2023-04-17T14:29:04.846Z,6.07
2023-04-17T14:31:31.887Z,5.40
2023-04-17T14:33:58.689Z,5.68
2023-04-17T14:36:25.941Z,5.05
2023-04-17T14:38:54.161Z,5.20
2023-04-17T14:41:21.029Z,5.95
2023-04-17T14:43:47.687Z,6.10
2023-04-17T14:46:14.529Z,5.47
2023-04-17T14:48:54.106Z,5.65
2023-04-17T14:51:26.985Z,5.40
2023-04-17T14:53:54.162Z,5.97
2023-04-17T14:56:21.592Z,5.65
2023-04-17T14:58:48.729Z,5.63
2023-04-17T15:01:15.673Z,5.18
2023-04-17T15:03:46.331Z,5.57
2023-04-17T15:06:15.177Z,6.05
2023-04-17T15:08:41.881Z,5.75
2023-04-17T15:11:08.845Z,5.70
2023-04-17T15:13:35.952Z,5.60
2023-04-17T15:16:03.445Z,5.38
2023-04-17T15:18:30.549Z,6.25
2023-04-17T15:20:57.206Z,5.28
2023-04-17T15:23:25.720Z,5.97
2023-04-17T15:25:57.681Z,5.22
2023-04-17T15:28:24.917Z,5.75
2023-04-17T15:30:51.538Z,6.22
2023-04-17T15:33:18.178Z,6.10
2023-04-17T15:35:44.816Z,5.85
2023-04-17T15:38:12.410Z,5.95
2023-04-17T15:40:39.235Z,6.18
2023-04-17T15:43:05.837Z,5.60
2023-04-17T15:45:32.489Z,5.28
2023-04-17T15:48:00.898Z,6.00
2023-04-17T15:50:27.608Z,5.80
2023-04-17T15:52:54.222Z,6.38
2023-04-17T15:55:20.889Z,5.82
2023-04-17T15:57:47.614Z,5.75
2023-04-17T16:00:14.767Z,5.70
2023-04-17T16:02:41.549Z,5.45
2023-04-17T16:05:08.626Z,5.50
2023-04-17T16:07:35.312Z,6.13
2023-04-17T16:10:01.995Z,5.55
2023-04-17T16:12:28.824Z,5.88
2023-04-17T16:14:55.418Z,6.13
2023-04-17T16:17:22.108Z,6.05
2023-04-17T16:19:50.577Z,5.78
2023-04-17T16:22:19.174Z,6.25
2023-04-17T16:24:45.848Z,5.90
2023-04-17T16:27:12.534Z,5.70
2023-04-17T16:29:39.182Z,5.70
2023-04-17T16:32:05.810Z,6.00
2023-04-17T16:34:32.530Z,6.95
2023-04-17T16:36:59.185Z,6.03
2023-04-17T16:39:25.824Z,6.15
2023-04-17T16:41:52.871Z,5.70
2023-04-17T16:44:19.879Z,6.22
2023-04-17T16:47:09.548Z,6.00
2023-04-17T16:49:33.126Z,6.05
2023-04-17T16:51:59.785Z,6.30
2023-04-17T16:54:26.465Z,6.53
2023-04-17T16:56:53.102Z,6.10
2023-04-17T16:59:19.885Z,6.03
2023-04-17T17:01:49.848Z,5.50
2023-04-17T17:04:16.747Z,6.65
2023-04-17T17:06:43.425Z,6.30
2023-04-17T17:09:10.415Z,5.90
2023-04-17T17:11:37.211Z,6.53
2023-04-17T17:14:03.895Z,6.10
2023-04-17T17:16:30.559Z,6.30
2023-04-17T17:18:57.205Z,6.10
2023-04-17T17:21:23.821Z,6.15
2023-04-17T17:23:50.580Z,6.75
2023-04-17T17:26:17.657Z,6.50
2023-04-17T17:28:50.664Z,7.25
2023-04-17T17:31:17.522Z,6.60
2023-04-17T17:33:44.708Z,6.85
2023-04-17T17:36:11.922Z,6.47
2023-04-17T17:38:38.881Z,6.85
2023-04-17T17:41:05.705Z,6.00
2023-04-17T17:43:32.348Z,6.72
2023-04-17T17:45:59.057Z,6.75
2023-04-17T17:48:25.813Z,6.90
2023-04-17T17:50:57.026Z,6.53
2023-04-17T17:53:26.289Z,6.75
2023-04-17T17:55:57.138Z,6.88
2023-04-17T17:58:24.381Z,6.57
2023-04-17T18:00:51.154Z,6.10
2023-04-17T18:03:18.242Z,6.70
2023-04-17T18:05:46.461Z,7.00
2023-04-17T18:08:13.982Z,6.70
2023-04-17T18:10:40.610Z,6.65
2023-04-17T18:13:07.235Z,6.45
2023-04-17T18:15:33.928Z,6.25
2023-04-17T18:18:00.765Z,6.78
2023-04-17T18:20:27.516Z,6.60
2023-04-17T18:22:54.204Z,6.93
2023-04-17T18:25:21.096Z,7.20
2023-04-17T18:27:47.775Z,7.28
2023-04-17T18:30:15.092Z,6.60
2023-04-17T18:32:41.748Z,6.45
2023-04-17T18:35:08.800Z,6.82
2023-04-17T18:37:35.811Z,6.63
2023-04-17T18:40:02.620Z,6.93
2023-04-17T18:42:29.236Z,7.30
2023-04-17T18:44:55.841Z,6.57
2023-04-17T18:47:22.483Z,6.80
2023-04-17T18:49:52.256Z,7.07
2023-04-17T18:52:19.132Z,6.88
2023-04-17T18:54:45.923Z,7.07
2023-04-17T18:57:12.597Z,6.72
2023-04-17T18:59:40.059Z,7.22
2023-04-17T19:02:07.639Z,7.30
2023-04-17T19:04:34.285Z,7.60
2023-04-17T19:07:02.646Z,7.93
2023-04-17T19:09:29.360Z,6.80
2023-04-17T19:11:57.341Z,8.35
2023-04-17T19:14:25.905Z,8.55
2023-04-17T19:16:53.330Z,8.60
2023-04-17T19:19:20.113Z,9.10
2023-04-17T19:21:46.752Z,7.40
2023-04-17T19:24:13.382Z,7.82
2023-04-17T19:26:40.022Z,7.38
2023-04-17T19:29:06.810Z,7.40
2023-04-17T19:31:33.943Z,8.00
2023-04-17T19:34:01.093Z,7.68
2023-04-17T19:36:28.142Z,7.25
2023-04-17T19:38:55.772Z,7.10
2023-04-17T19:41:22.531Z,7.85
2023-04-17T19:43:51.149Z,7.70
2023-04-17T19:46:18.773Z,7.22
2023-04-17T19:48:46.250Z,7.45
2023-04-17T19:51:13.647Z,9.18
2023-04-17T19:53:42.202Z,7.40
2023-04-17T19:56:09.467Z,7.60
2023-04-17T19:58:37.049Z,7.90
2023-04-17T20:01:04.125Z,7.15
2023-04-17T20:03:31.738Z,8.45
2023-04-17T20:05:58.910Z,7.97
2023-04-17T20:08:25.914Z,8.48
2023-04-17T20:10:52.747Z,7.88
2023-04-17T20:13:19.489Z,8.10
2023-04-17T20:15:46.265Z,8.20
2023-04-17T20:18:13.115Z,7.78
2023-04-17T20:20:39.787Z,7.65
2023-04-17T20:23:06.490Z,7.70
2023-04-17T20:25:33.219Z,7.78
2023-04-17T20:28:02.496Z,7.57
2023-04-17T20:30:29.422Z,7.35
2023-04-17T20:32:56.678Z,7.68
2023-04-17T20:35:24.641Z,8.40
2023-04-17T20:37:52.431Z,7.10
2023-04-17T20:40:19.648Z,7.72
2023-04-17T20:42:46.754Z,7.40
2023-04-17T20:45:13.793Z,8.20
2023-04-17T20:47:55.405Z,7.70
2023-04-17T20:50:23.180Z,8.35
2023-04-17T20:52:49.838Z,7.68
2023-04-17T20:55:19.806Z,8.50
2023-04-17T20:57:47.047Z,7.43
2023-04-17T21:00:14.130Z,7.78
2023-04-17T21:02:41.091Z,7.70
2023-04-17T21:05:08.821Z,7.18
2023-04-17T21:07:36.285Z,7.38
2023-04-17T21:10:03.739Z,8.05
2023-04-17T21:12:32.630Z,7.20
2023-04-17T21:14:59.252Z,8.30
2023-04-17T21:17:25.935Z,7.85
2023-04-17T21:19:52.652Z,8.10
2023-04-17T21:22:19.286Z,9.32
2023-04-17T21:24:45.917Z,7.68
2023-04-17T21:27:12.556Z,7.60
2023-04-17T21:29:40.947Z,7.32
2023-04-17T21:32:07.686Z,8.10
2023-04-17T21:34:34.387Z,7.40
2023-04-17T21:37:04.895Z,7.97
2023-04-17T21:39:33.067Z,7.45
2023-04-17T21:42:00.490Z,7.75
2023-04-17T21:44:27.194Z,7.70
2023-04-17T21:46:53.779Z,8.50
2023-04-17T21:49:21.008Z,7.80
2023-04-17T21:51:47.652Z,7.80
2023-04-17T21:54:14.675Z,8.07
2023-04-17T21:56:41.592Z,8.43
2023-04-17T21:59:08.346Z,7.72
2023-04-17T22:01:35.106Z,8.32
2023-04-17T22:04:01.837Z,7.72
2023-04-17T22:06:28.495Z,8.00
2023-04-17T22:08:55.256Z,7.40
2023-04-17T22:11:23.013Z,7.70
2023-04-17T22:13:49.635Z,8.73
2023-04-17T22:16:16.350Z,8.35
2023-04-17T22:18:43.015Z,7.90
2023-04-17T22:21:09.632Z,7.85
2023-04-17T22:23:36.259Z,8.65
2023-04-17T22:26:02.908Z,8.50
2023-04-17T22:28:31.045Z,8.55
2023-04-17T22:30:59.002Z,8.30
2023-04-17T22:33:26.175Z,8.25
2023-04-17T22:35:53.213Z,8.68
2023-04-17T22:38:21.051Z,8.50
2023-04-17T22:40:48.054Z,8.15
2023-04-17T22:43:14.807Z,8.63
2023-04-17T22:45:41.448Z,8.15
2023-04-17T22:48:08.138Z,7.97
2023-04-17T22:50:34.841Z,8.30
2023-04-17T22:53:01.462Z,8.32
2023-04-17T22:55:28.170Z,8.20
2023-04-17T22:57:54.807Z,8.98
2023-04-17T23:00:21.676Z,8.00
2023-04-17T23:02:48.404Z,8.90
2023-04-17T23:05:15.395Z,8.45
2023-04-17T23:07:42.115Z,8.63
2023-04-17T23:10:09.252Z,7.82
2023-04-17T23:12:35.914Z,7.80
2023-04-17T23:15:02.802Z,8.60
2023-04-17T23:17:29.440Z,9.00
2023-04-17T23:19:56.407Z,8.90
2023-04-17T23:22:23.226Z,8.18
2023-04-17T23:24:49.860Z,8.73
2023-04-17T23:27:16.527Z,9.00
2023-04-17T23:29:43.157Z,8.25
2023-04-17T23:32:09.976Z,8.45
2023-04-17T23:34:37.537Z,9.20
2023-04-17T23:37:04.223Z,8.20
2023-04-17T23:39:30.924Z,8.98
2023-04-17T23:41:57.669Z,9.63
2023-04-17T23:44:24.355Z,9.05
2023-04-17T23:46:51.329Z,8.82
2023-04-17T23:49:18.108Z,9.20
2023-04-17T23:51:45.018Z,8.13
2023-04-17T23:54:12.301Z,8.55
2023-04-17T23:56:39.091Z,9.05
2023-04-17T23:59:05.728Z,8.40
